»·PEaware :: N2MZ KSNA-KCRQ

N2MZ :: KSNA-KCRQ

FLIGHT INFORMATION

Flight Status: Arrived
Operator: Privately registered:
United States
More flights under this callsign
Pilot: Mike Z. (25595)
Aircraft: CESSNA 172 SKYHAWK
(C172)
More flights by this aircraft type
Origin: KSNA John Wayne-Orange Co
United States
Destination: KCRQ McClellan-Palomar
United States
More flights between these airports :: More routes between these airports
Route: V23 OCN
File this flight plan on PilotEdge
Remarks: CSTP30
Altitude:
(Current/Filed)
5,000ft
Speed:
(Current/Filed)
115kts
Departed: 16-Dec-19 05:28 PM
Arrived: 16-Dec-19 06:00 PM
Distance/Time
Traveled:
44nm/0:32
Distance/Time
To Go:
Arrived

Flight Plot

Page will automatically refresh every two minutes.


Map Options




Map Legend


Flown Route
Filed Route
Departure Airport
Arrival Airport
Navaid (VOR, NDB)
Fix

Horizontal Profiles

Position Reports

Time Latitude Longitude Heading Altitude Ground
Speed
16-Dec-19 17:13 33.671189 -117.868027 211 60ft 0kts
16-Dec-19 17:14 33.671189 -117.868027 211 60ft 0kts
16-Dec-19 17:15 33.671189 -117.868027 210 60ft 0kts
16-Dec-19 17:16 33.671189 -117.868027 210 60ft 0kts
16-Dec-19 17:17 33.671189 -117.868027 210 60ft 0kts
16-Dec-19 17:18 33.671189 -117.868027 210 60ft 0kts
16-Dec-19 17:19 33.671189 -117.868027 210 60ft 0kts
16-Dec-19 17:20 33.671189 -117.868027 210 60ft 0kts
16-Dec-19 17:21 33.671150 -117.868088 255 60ft 0kts
16-Dec-19 17:22 33.672847 -117.867570 42 60ft 20kts
16-Dec-19 17:23 33.673833 -117.867428 296 60ft 0kts
16-Dec-19 17:24 33.673833 -117.867428 296 60ft 0kts
16-Dec-19 17:25 33.673833 -117.867428 296 60ft 0kts
16-Dec-19 17:26 33.674402 -117.867783 27 60ft 13kts
16-Dec-19 17:27 33.690569 -117.863008 312 520ft 80kts
16-Dec-19 17:28 33.687060 -117.889599 255 1275ft 81kts
16-Dec-19 17:29 33.681785 -117.912281 255 1952ft 74kts
16-Dec-19 17:30 33.672196 -117.929236 137 2585ft 76kts
16-Dec-19 17:31 33.658208 -117.908313 133 3186ft 82kts
16-Dec-19 17:32 33.643409 -117.888616 132 3841ft 79kts
16-Dec-19 17:33 33.626373 -117.869035 135 4359ft 90kts
16-Dec-19 17:34 33.608592 -117.848572 135 5014ft 82kts
16-Dec-19 17:35 33.588490 -117.825395 135 5010ft 108kts
16-Dec-19 17:36 33.566698 -117.800159 135 5008ft 112kts
16-Dec-19 17:37 33.544188 -117.773971 135 5008ft 113kts
16-Dec-19 17:38 33.521668 -117.747711 135 5008ft 113kts
16-Dec-19 17:39 33.499107 -117.721382 135 5008ft 113kts
16-Dec-19 17:40 33.476571 -117.695084 135 5008ft 113kts
16-Dec-19 17:41 33.454081 -117.668847 135 5008ft 113kts
16-Dec-19 17:42 33.430486 -117.641357 135 4748ft 120kts
16-Dec-19 17:43 33.408362 -117.614468 130 4633ft 109kts
16-Dec-19 17:44 33.387208 -117.588563 134 4531ft 108kts
16-Dec-19 17:45 33.367031 -117.564576 134 4441ft 112kts
16-Dec-19 17:46 33.343550 -117.536780 135 4353ft 122kts
16-Dec-19 17:47 33.319060 -117.507923 135 4255ft 124kts
16-Dec-19 17:48 33.293008 -117.480149 137 4157ft 126kts
16-Dec-19 17:49 33.266971 -117.450862 134 3909ft 134kts
16-Dec-19 17:50 33.240999 -117.418003 135 3510ft 136kts
16-Dec-19 17:51 33.216656 -117.388847 135 2778ft 116kts
16-Dec-19 17:52 33.196138 -117.363867 134 2229ft 93kts
16-Dec-19 17:53 33.179433 -117.345095 126 1875ft 64kts
16-Dec-19 17:54 33.166630 -117.327478 130 1825ft 72kts
16-Dec-19 17:55 33.151066 -117.308803 132 1327ft 78kts
16-Dec-19 17:56 33.138638 -117.289568 124 918ft 69kts
16-Dec-19 17:57 33.136384 -117.268270 71 893ft 66kts
16-Dec-19 17:58 33.129473 -117.272525 261 407ft 74kts
16-Dec-19 17:59 33.128561 -117.282820 1 335ft 0kts
16-Dec-19 18:00 33.129350 -117.278536 79 335ft 31kts
16-Dec-19 18:01 33.129891 -117.277408 339 335ft 0kts
16-Dec-19 18:02 33.129891 -117.277409 339 335ft 0kts
16-Dec-19 18:03 33.129891 -117.277409 339 335ft 0kts

Navigation Log

Ident Type
Flight plan parsing failed, navigation log unavailable